sensor_id;sensor_type;location;lat;lon;timestamp;pressure;altitude;pressure_sealevel;temperature;humidity
19811;BME280;10065;49.632;8.346;2022-07-05T00:01:45;100884.94;;;22.37;41.99
19811;BME280;10065;49.632;8.346;2022-07-05T00:04:13;100880.78;;;22.41;41.90
19811;BME280;10065;49.632;8.346;2022-07-05T00:06:41;100877.03;;;22.42;42.21
19811;BME280;10065;49.632;8.346;2022-07-05T00:09:29;100879.97;;;22.40;42.24
19811;BME280;10065;49.632;8.346;2022-07-05T00:11:59;100879.13;;;22.40;41.96
19811;BME280;10065;49.632;8.346;2022-07-05T00:14:27;100875.41;;;22.34;42.57
19811;BME280;10065;49.632;8.346;2022-07-05T00:16:56;100874.16;;;22.37;42.38
19811;BME280;10065;49.632;8.346;2022-07-05T00:19:24;100877.09;;;22.29;42.77
19811;BME280;10065;49.632;8.346;2022-07-05T00:21:52;100873.19;;;22.18;43.33
19811;BME280;10065;49.632;8.346;2022-07-05T00:24:19;100882.31;;;22.17;42.66
19811;BME280;10065;49.632;8.346;2022-07-05T00:26:47;100873.84;;;22.13;42.84
19811;BME280;10065;49.632;8.346;2022-07-05T00:29:15;100882.16;;;22.12;43.10
19811;BME280;10065;49.632;8.346;2022-07-05T00:31:43;100878.00;;;22.09;42.77
19811;BME280;10065;49.632;8.346;2022-07-05T00:34:12;100879.66;;;22.10;43.05
19811;BME280;10065;49.632;8.346;2022-07-05T00:36:40;100873.88;;;22.07;43.01
19811;BME280;10065;49.632;8.346;2022-07-05T00:39:08;100879.88;;;22.09;42.73
19811;BME280;10065;49.632;8.346;2022-07-05T00:41:36;100877.41;;;22.07;42.99
19811;BME280;10065;49.632;8.346;2022-07-05T00:44:06;100872.81;;;22.08;42.94
19811;BME280;10065;49.632;8.346;2022-07-05T00:46:35;100875.13;;;22.04;42.91
19811;BME280;10065;49.632;8.346;2022-07-05T00:49:04;100868.47;;;22.07;43.17
19811;BME280;10065;49.632;8.346;2022-07-05T00:51:36;100874.72;;;22.07;42.94
19811;BME280;10065;49.632;8.346;2022-07-05T00:54:24;100873.88;;;22.00;43.06
19811;BME280;10065;49.632;8.346;2022-07-05T00:56:52;100880.53;;;22.04;43.03
19811;BME280;10065;49.632;8.346;2022-07-05T00:59:24;100880.09;;;22.01;42.86
19811;BME280;10065;49.632;8.346;2022-07-05T01:01:53;100878.44;;;21.93;43.13
19811;BME280;10065;49.632;8.346;2022-07-05T01:04:20;100875.94;;;21.92;43.14
19811;BME280;10065;49.632;8.346;2022-07-05T01:06:50;100875.56;;;21.88;43.17
19811;BME280;10065;49.632;8.346;2022-07-05T01:09:19;100874.94;;;21.86;43.23
19811;BME280;10065;49.632;8.346;2022-07-05T01:11:50;100873.94;;;21.81;43.39
19811;BME280;10065;49.632;8.346;2022-07-05T01:14:20;100875.56;;;21.82;43.66
19811;BME280;10065;49.632;8.346;2022-07-05T01:16:49;100866.66;;;21.81;43.39
19811;BME280;10065;49.632;8.346;2022-07-05T01:19:18;100870.41;;;21.80;43.38
19811;BME280;10065;49.632;8.346;2022-07-05T01:21:49;100876.38;;;21.82;43.17
19811;BME280;10065;49.632;8.346;2022-07-05T01:24:19;100874.13;;;21.79;43.50
19811;BME280;10065;49.632;8.346;2022-07-05T01:26:49;100866.03;;;21.72;43.24
19811;BME280;10065;49.632;8.346;2022-07-05T01:29:17;100873.13;;;21.67;43.63
19811;BME280;10065;49.632;8.346;2022-07-05T01:31:45;100867.09;;;21.65;43.86
19811;BME280;10065;49.632;8.346;2022-07-05T01:34:13;100868.56;;;21.61;43.74
19811;BME280;10065;49.632;8.346;2022-07-05T01:36:41;100872.31;;;21.60;44.08
19811;BME280;10065;49.632;8.346;2022-07-05T01:39:08;100871.69;;;21.58;44.35
19811;BME280;10065;49.632;8.346;2022-07-05T01:41:37;100871.06;;;21.56;44.20
19811;BME280;10065;49.632;8.346;2022-07-05T01:44:05;100867.34;;;21.50;44.49
19811;BME280;10065;49.632;8.346;2022-07-05T01:46:33;100870.66;;;21.52;44.62
19811;BME280;10065;49.632;8.346;2022-07-05T01:49:06;100875.22;;;21.52;44.55
19811;BME280;10065;49.632;8.346;2022-07-05T01:51:39;100874.81;;;21.48;44.66
19811;BME280;10065;49.632;8.346;2022-07-05T01:54:09;100878.97;;;21.37;44.95
19811;BME280;10065;49.632;8.346;2022-07-05T01:56:38;100871.72;;;21.31;45.04
19811;BME280;10065;49.632;8.346;2022-07-05T01:59:06;100871.53;;;21.26;44.98
19811;BME280;10065;49.632;8.346;2022-07-05T02:01:36;100878.13;;;21.30;44.82
19811;BME280;10065;49.632;8.346;2022-07-05T02:04:05;100871.91;;;21.30;44.90
19811;BME280;10065;49.632;8.346;2022-07-05T02:06:34;100871.91;;;21.30;45.19
19811;BME280;10065;49.632;8.346;2022-07-05T02:09:03;100875.25;;;21.32;45.12
19811;BME280;10065;49.632;8.346;2022-07-05T02:11:31;100870.69;;;21.32;45.05
19811;BME280;10065;49.632;8.346;2022-07-05T02:14:00;100866.31;;;21.31;44.98
19811;BME280;10065;49.632;8.346;2022-07-05T02:16:28;100874.59;;;21.30;44.96
19811;BME280;10065;49.632;8.346;2022-07-05T02:18:56;100861.56;;;21.27;44.80
19811;BME280;10065;49.632;8.346;2022-07-05T02:21:24;100863.63;;;21.25;45.16
19811;BME280;10065;49.632;8.346;2022-07-05T02:23:52;100862.38;;;21.21;45.35
19811;BME280;10065;49.632;8.346;2022-07-05T02:26:19;100866.34;;;21.18;45.25
19811;BME280;10065;49.632;8.346;2022-07-05T02:28:48;100861.97;;;21.17;45.35
19811;BME280;10065;49.632;8.346;2022-07-05T02:31:17;100865.91;;;21.21;45.55
19811;BME280;10065;49.632;8.346;2022-07-05T02:33:46;100864.03;;;21.22;45.56
19811;BME280;10065;49.632;8.346;2022-07-05T02:36:14;100873.16;;;21.21;45.63
19811;BME280;10065;49.632;8.346;2022-07-05T02:38:42;100870.63;;;21.13;45.69
19811;BME280;10065;49.632;8.346;2022-07-05T02:41:10;100877.28;;;21.10;45.28
19811;BME280;10065;49.632;8.346;2022-07-05T02:43:39;100874.81;;;21.09;45.48
19811;BME280;10065;49.632;8.346;2022-07-05T02:46:08;100873.97;;;21.08;45.30
19811;BME280;10065;49.632;8.346;2022-07-05T02:48:37;100873.34;;;21.06;45.66
19811;BME280;10065;49.632;8.346;2022-07-05T02:51:05;100872.72;;;21.04;45.85
19811;BME280;10065;49.632;8.346;2022-07-05T02:53:34;100881.44;;;21.06;45.47
19811;BME280;10065;49.632;8.346;2022-07-05T02:56:02;100877.06;;;21.05;45.91
19811;BME280;10065;49.632;8.346;2022-07-05T02:58:29;100876.44;;;21.03;45.99
19811;BME280;10065;49.632;8.346;2022-07-05T03:00:57;100873.34;;;20.99;45.80
19811;BME280;10065;49.632;8.346;2022-07-05T03:03:25;100870.22;;;20.96;45.88
19811;BME280;10065;49.632;8.346;2022-07-05T03:05:54;100873.75;;;20.90;46.00
19811;BME280;10065;49.632;8.346;2022-07-05T03:08:22;100879.53;;;20.87;46.49
19811;BME280;10065;49.632;8.346;2022-07-05T03:10:50;100878.50;;;20.81;46.58
19811;BME280;10065;49.632;8.346;2022-07-05T03:13:17;100879.34;;;20.82;46.34
19811;BME280;10065;49.632;8.346;2022-07-05T03:15:45;100877.88;;;20.79;46.91
19811;BME280;10065;49.632;8.346;2022-07-05T03:18:13;100876.41;;;20.77;46.66
19811;BME280;10065;49.632;8.346;2022-07-05T03:20:41;100880.16;;;20.76;47.00
19811;BME280;10065;49.632;8.346;2022-07-05T03:23:10;100892.59;;;20.77;46.97
19811;BME280;10065;49.632;8.346;2022-07-05T03:25:38;100884.94;;;20.74;47.26
19811;BME280;10065;49.632;8.346;2022-07-05T03:28:05;100884.28;;;20.78;47.32
19811;BME280;10065;49.632;8.346;2022-07-05T03:30:33;100890.53;;;20.79;47.57
19811;BME280;10065;49.632;8.346;2022-07-05T03:33:01;100888.84;;;20.78;47.71
19811;BME280;10065;49.632;8.346;2022-07-05T03:35:29;100883.66;;;20.76;47.86
19811;BME280;10065;49.632;8.346;2022-07-05T03:37:56;100889.28;;;20.75;47.98
19811;BME280;10065;49.632;8.346;2022-07-05T03:40:25;100884.28;;;20.72;47.88
19811;BME280;10065;49.632;8.346;2022-07-05T03:42:53;100884.69;;;20.69;47.61
19811;BME280;10065;49.632;8.346;2022-07-05T03:45:21;100893.19;;;20.65;47.94
19811;BME280;10065;49.632;8.346;2022-07-05T03:47:49;100887.56;;;20.60;47.90
19811;BME280;10065;49.632;8.346;2022-07-05T03:50:17;100896.47;;;20.54;47.73
19811;BME280;10065;49.632;8.346;2022-07-05T03:52:45;100891.69;;;20.50;48.09
19811;BME280;10065;49.632;8.346;2022-07-05T03:55:13;100901.63;;;20.49;48.68
19811;BME280;10065;49.632;8.346;2022-07-05T03:57:42;100902.06;;;20.53;48.24
19811;BME280;10065;49.632;8.346;2022-07-05T04:00:11;100906.41;;;20.54;48.60
19811;BME280;10065;49.632;8.346;2022-07-05T04:02:39;100908.66;;;20.44;48.88
19811;BME280;10065;49.632;8.346;2022-07-05T04:05:07;100916.72;;;20.37;48.80
19811;BME280;10065;49.632;8.346;2022-07-05T04:07:46;100928.34;;;20.38;49.00
19811;BME280;10065;49.632;8.346;2022-07-05T04:10:14;100921.50;;;20.42;48.64
19811;BME280;10065;49.632;8.346;2022-07-05T04:12:43;100920.28;;;20.44;48.44
19811;BME280;10065;49.632;8.346;2022-07-05T04:15:11;100918.84;;;20.48;48.27
19811;BME280;10065;49.632;8.346;2022-07-05T04:17:47;100919.88;;;20.47;48.23
19811;BME280;10065;49.632;8.346;2022-07-05T04:20:15;100921.72;;;20.40;48.47
19811;BME280;10065;49.632;8.346;2022-07-05T04:22:43;100926.06;;;20.41;48.57
19811;BME280;10065;49.632;8.346;2022-07-05T04:25:11;100928.13;;;20.39;48.53
19811;BME280;10065;49.632;8.346;2022-07-05T04:27:47;100933.09;;;20.42;48.54
19811;BME280;10065;49.632;8.346;2022-07-05T04:30:16;100934.56;;;20.45;48.34
19811;BME280;10065;49.632;8.346;2022-07-05T04:32:44;100943.50;;;20.45;48.58
19811;BME280;10065;49.632;8.346;2022-07-05T04:35:12;100936.25;;;20.52;48.57
19811;BME280;10065;49.632;8.346;2022-07-05T04:37:41;100934.63;;;20.58;48.44
19811;BME280;10065;49.632;8.346;2022-07-05T04:40:11;100939.19;;;20.57;48.79
19811;BME280;10065;49.632;8.346;2022-07-05T04:42:40;100943.13;;;20.61;48.46
19811;BME280;10065;49.632;8.346;2022-07-05T04:45:09;100940.25;;;20.70;48.34
19811;BME280;10065;49.632;8.346;2022-07-05T04:47:37;100941.06;;;20.70;48.63
19811;BME280;10065;49.632;8.346;2022-07-05T04:50:06;100938.59;;;20.69;48.47
19811;BME280;10065;49.632;8.346;2022-07-05T04:52:34;100939.84;;;20.73;48.71
19811;BME280;10065;49.632;8.346;2022-07-05T04:55:02;100940.25;;;20.76;48.72
19811;BME280;10065;49.632;8.346;2022-07-05T04:57:36;100945.69;;;20.83;48.28
19811;BME280;10065;49.632;8.346;2022-07-05T05:00:05;100947.75;;;20.81;48.47
19811;BME280;10065;49.632;8.346;2022-07-05T05:02:34;100942.78;;;20.84;47.97
19811;BME280;10065;49.632;8.346;2022-07-05T05:05:03;100950.88;;;20.91;47.95
19811;BME280;10065;49.632;8.346;2022-07-05T05:07:31;100948.00;;;20.92;48.40
19811;BME280;10065;49.632;8.346;2022-07-05T05:10:04;100951.53;;;20.93;48.10
19811;BME280;10065;49.632;8.346;2022-07-05T05:12:32;100953.78;;;20.96;48.22
19811;BME280;10065;49.632;8.346;2022-07-05T05:15:00;100956.50;;;20.96;48.48
19811;BME280;10065;49.632;8.346;2022-07-05T05:17:35;100954.03;;;21.01;48.43
19811;BME280;10065;49.632;8.346;2022-07-05T05:20:05;100961.88;;;21.02;48.25
19811;BME280;10065;49.632;8.346;2022-07-05T05:22:34;100951.97;;;21.10;48.30
19811;BME280;10065;49.632;8.346;2022-07-05T05:25:02;100951.13;;;21.16;48.13
19811;BME280;10065;49.632;8.346;2022-07-05T05:27:30;100957.59;;;21.21;48.19
19811;BME280;10065;49.632;8.346;2022-07-05T05:29:58;100962.78;;;21.23;48.47
19811;BME280;10065;49.632;8.346;2022-07-05T05:32:25;100956.78;;;21.27;48.12
19811;BME280;10065;49.632;8.346;2022-07-05T05:34:55;100952.44;;;21.33;48.67
19811;BME280;10065;49.632;8.346;2022-07-05T05:37:23;100962.38;;;21.39;48.40
19811;BME280;10065;49.632;8.346;2022-07-05T05:39:50;100964.47;;;21.44;48.61
19811;BME280;10065;49.632;8.346;2022-07-05T05:42:18;100970.25;;;21.47;48.25
19811;BME280;10065;49.632;8.346;2022-07-05T05:44:46;100970.69;;;21.51;48.48
19811;BME280;10065;49.632;8.346;2022-07-05T05:47:14;100969.25;;;21.55;47.54
19811;BME280;10065;49.632;8.346;2022-07-05T05:49:42;100979.22;;;21.61;46.89
19811;BME280;10065;49.632;8.346;2022-07-05T05:52:12;100967.78;;;21.65;46.87
19811;BME280;10065;49.632;8.346;2022-07-05T05:54:39;100974.81;;;21.73;46.75
19811;BME280;10065;49.632;8.346;2022-07-05T05:57:07;100976.50;;;21.74;46.84
19811;BME280;10065;49.632;8.346;2022-07-05T05:59:35;100984.81;;;21.79;47.22
19811;BME280;10065;49.632;8.346;2022-07-05T06:02:03;100986.66;;;21.85;47.56
19811;BME280;10065;49.632;8.346;2022-07-05T06:04:31;100986.06;;;21.90;47.08
19811;BME280;10065;49.632;8.346;2022-07-05T06:06:59;100984.78;;;21.99;47.13
19811;BME280;10065;49.632;8.346;2022-07-05T06:09:28;100983.16;;;22.04;47.13
19811;BME280;10065;49.632;8.346;2022-07-05T06:11:56;100987.06;;;22.08;46.56
19811;BME280;10065;49.632;8.346;2022-07-05T06:14:24;100994.34;;;22.14;46.46
19811;BME280;10065;49.632;8.346;2022-07-05T06:16:52;100996.81;;;22.23;46.81
19811;BME280;10065;49.632;8.346;2022-07-05T06:19:19;100991.38;;;22.29;46.58
19811;BME280;10065;49.632;8.346;2022-07-05T06:21:47;100988.06;;;22.34;46.52
19811;BME280;10065;49.632;8.346;2022-07-05T06:24:15;100998.44;;;22.37;45.90
19811;BME280;10065;49.632;8.346;2022-07-05T06:26:44;100997.56;;;22.43;46.20
19811;BME280;10065;49.632;8.346;2022-07-05T06:29:12;100989.03;;;22.46;45.97
19811;BME280;10065;49.632;8.346;2022-07-05T06:31:39;100993.00;;;22.50;46.12
19811;BME280;10065;49.632;8.346;2022-07-05T06:34:07;100992.75;;;22.58;45.74
19811;BME280;10065;49.632;8.346;2022-07-05T06:36:35;100991.88;;;22.64;45.22
19811;BME280;10065;49.632;8.346;2022-07-05T06:39:03;100993.13;;;22.68;44.70
19811;BME280;10065;49.632;8.346;2022-07-05T06:41:30;100994.78;;;22.76;43.89
19811;BME280;10065;49.632;8.346;2022-07-05T06:43:59;100999.53;;;22.80;44.12
19811;BME280;10065;49.632;8.346;2022-07-05T06:46:47;100995.38;;;22.84;44.11
19811;BME280;10065;49.632;8.346;2022-07-05T06:49:15;101002.41;;;22.92;43.99
19811;BME280;10065;49.632;8.346;2022-07-05T06:51:43;100988.66;;;22.94;44.35
19811;BME280;10065;49.632;8.346;2022-07-05T06:54:10;100996.94;;;22.99;44.06
19811;BME280;10065;49.632;8.346;2022-07-05T06:56:58;100996.06;;;23.05;43.92
19811;BME280;10065;49.632;8.346;2022-07-05T06:59:47;101006.03;;;23.11;43.73
19811;BME280;10065;49.632;8.346;2022-07-05T07:02:24;101001.84;;;23.15;43.49
19811;BME280;10065;49.632;8.346;2022-07-05T07:04:53;101003.91;;;23.19;43.56
19811;BME280;10065;49.632;8.346;2022-07-05T07:07:39;101005.09;;;23.23;43.41
19811;BME280;10065;49.632;8.346;2022-07-05T07:10:25;101005.94;;;23.24;43.39
19811;BME280;10065;49.632;8.346;2022-07-05T07:12:55;101018.63;;;23.30;43.64
19811;BME280;10065;49.632;8.346;2022-07-05T07:15:24;101012.53;;;23.35;43.54
19811;BME280;10065;49.632;8.346;2022-07-05T07:17:52;101012.13;;;23.38;43.66
19811;BME280;10065;49.632;8.346;2022-07-05T07:20:20;101010.41;;;23.43;43.59
19811;BME280;10065;49.632;8.346;2022-07-05T07:22:48;101014.13;;;23.49;43.35
19811;BME280;10065;49.632;8.346;2022-07-05T07:25:16;101016.41;;;23.52;43.77
19811;BME280;10065;49.632;8.346;2022-07-05T07:27:48;101015.50;;;23.58;43.70
19811;BME280;10065;49.632;8.346;2022-07-05T07:30:18;101023.59;;;23.65;43.35
19811;BME280;10065;49.632;8.346;2022-07-05T07:32:47;101019.16;;;23.70;42.97
19811;BME280;10065;49.632;8.346;2022-07-05T07:35:15;101023.94;;;23.75;43.10
19811;BME280;10065;49.632;8.346;2022-07-05T07:37:43;101025.75;;;23.81;42.84
19811;BME280;10065;49.632;8.346;2022-07-05T07:40:11;101022.59;;;23.84;42.41
19811;BME280;10065;49.632;8.346;2022-07-05T07:42:39;101021.72;;;23.90;41.97
19811;BME280;10065;49.632;8.346;2022-07-05T07:45:08;101035.19;;;23.96;42.08
19811;BME280;10065;49.632;8.346;2022-07-05T07:47:36;101029.94;;;24.01;42.21
19811;BME280;10065;49.632;8.346;2022-07-05T07:50:06;101029.41;;;24.11;42.35
19811;BME280;10065;49.632;8.346;2022-07-05T07:52:34;101022.28;;;24.17;42.89
19811;BME280;10065;49.632;8.346;2022-07-05T07:55:04;101030.59;;;24.22;43.40
19811;BME280;10065;49.632;8.346;2022-07-05T07:57:31;101038.50;;;24.23;43.07
19811;BME280;10065;49.632;8.346;2022-07-05T07:59:59;101034.66;;;24.31;41.80
19811;BME280;10065;49.632;8.346;2022-07-05T08:02:27;101024.38;;;24.40;41.85
19811;BME280;10065;49.632;8.346;2022-07-05T08:04:55;101027.25;;;24.45;41.89
19811;BME280;10065;49.632;8.346;2022-07-05T08:07:25;101024.44;;;24.51;41.61
19811;BME280;10065;49.632;8.346;2022-07-05T08:09:55;101021.66;;;24.58;41.13
19811;BME280;10065;49.632;8.346;2022-07-05T08:12:23;101023.44;;;24.64;41.31
19811;BME280;10065;49.632;8.346;2022-07-05T08:14:51;101034.47;;;24.69;40.92
19811;BME280;10065;49.632;8.346;2022-07-05T08:17:18;101019.53;;;24.78;40.51
19811;BME280;10065;49.632;8.346;2022-07-05T08:19:47;101023.81;;;24.86;40.22
19811;BME280;10065;49.632;8.346;2022-07-05T08:22:34;101017.28;;;24.93;40.06
19811;BME280;10065;49.632;8.346;2022-07-05T08:25:01;101014.69;;;24.98;40.20
19811;BME280;10065;49.632;8.346;2022-07-05T08:27:29;101020.88;;;25.05;40.30
19811;BME280;10065;49.632;8.346;2022-07-05T08:29:57;101019.00;;;25.18;40.27
19811;BME280;10065;49.632;8.346;2022-07-05T08:32:25;101015.97;;;25.26;40.08
19811;BME280;10065;49.632;8.346;2022-07-05T08:34:52;101018.84;;;25.31;40.26
19811;BME280;10065;49.632;8.346;2022-07-05T08:37:20;101013.66;;;25.41;40.30
19811;BME280;10065;49.632;8.346;2022-07-05T08:39:49;101004.59;;;25.47;39.76
19811;BME280;10065;49.632;8.346;2022-07-05T08:42:18;101006.72;;;25.57;39.78
19811;BME280;10065;49.632;8.346;2022-07-05T08:44:47;101002.41;;;25.67;39.58
19811;BME280;10065;49.632;8.346;2022-07-05T08:47:17;101007.47;;;25.64;37.19
19811;BME280;10065;49.632;8.346;2022-07-05T08:49:47;101005.94;;;25.79;36.91
19811;BME280;10065;49.632;8.346;2022-07-05T08:52:17;101001.22;;;25.86;36.89
19811;BME280;10065;49.632;8.346;2022-07-05T08:54:50;101006.91;;;25.97;37.39
19811;BME280;10065;49.632;8.346;2022-07-05T08:57:19;100997.69;;;25.98;36.77
19811;BME280;10065;49.632;8.346;2022-07-05T08:59:47;101000.63;;;26.08;37.13
19811;BME280;10065;49.632;8.346;2022-07-05T09:02:16;100995.56;;;26.11;36.85
19811;BME280;10065;49.632;8.346;2022-07-05T09:04:45;100996.88;;;26.20;36.92
19811;BME280;10065;49.632;8.346;2022-07-05T09:07:16;100999.69;;;26.26;37.86
19811;BME280;10065;49.632;8.346;2022-07-05T09:09:47;100996.38;;;26.35;37.97
19811;BME280;10065;49.632;8.346;2022-07-05T09:12:18;100996.84;;;26.44;38.33
19811;BME280;10065;49.632;8.346;2022-07-05T09:14:50;100993.50;;;26.53;38.07
19811;BME280;10065;49.632;8.346;2022-07-05T09:17:18;101008.19;;;26.41;35.73
19811;BME280;10065;49.632;8.346;2022-07-05T09:20:04;101004.06;;;26.38;34.64
19811;BME280;10065;49.632;8.346;2022-07-05T09:22:45;100997.28;;;26.52;35.06
19811;BME280;10065;49.632;8.346;2022-07-05T09:25:21;100994.19;;;26.60;35.55
19811;BME280;10065;49.632;8.346;2022-07-05T09:27:53;100999.63;;;26.60;35.53
19811;BME280;10065;49.632;8.346;2022-07-05T09:30:30;101005.16;;;26.66;35.02
19811;BME280;10065;49.632;8.346;2022-07-05T09:33:05;100999.00;;;26.82;35.36
19811;BME280;10065;49.632;8.346;2022-07-05T09:35:34;100990.78;;;26.93;35.50
19811;BME280;10065;49.632;8.346;2022-07-05T09:38:02;101005.34;;;26.99;35.55
19811;BME280;10065;49.632;8.346;2022-07-05T09:40:31;101001.03;;;27.03;35.64
19811;BME280;10065;49.632;8.346;2022-07-05T09:43:14;100994.78;;;27.19;35.70
19811;BME280;10065;49.632;8.346;2022-07-05T09:45:50;100994.66;;;27.26;34.93
19811;BME280;10065;49.632;8.346;2022-07-05T09:48:19;100998.22;;;27.26;34.33
19811;BME280;10065;49.632;8.346;2022-07-05T09:51:04;101001.41;;;27.23;34.12
19811;BME280;10065;49.632;8.346;2022-07-05T09:53:54;100988.53;;;27.35;33.92
19811;BME280;10065;49.632;8.346;2022-07-05T09:56:27;100993.69;;;27.49;34.31
19811;BME280;10065;49.632;8.346;2022-07-05T09:59:11;100995.66;;;27.53;33.83
19811;BME280;10065;49.632;8.346;2022-07-05T10:01:40;100995.16;;;27.40;34.32
19811;BME280;10065;49.632;8.346;2022-07-05T10:04:08;101000.38;;;27.41;33.64
19811;BME280;10065;49.632;8.346;2022-07-05T10:06:36;100994.38;;;27.56;34.14
19811;BME280;10065;49.632;8.346;2022-07-05T10:09:04;101003.63;;;27.55;33.74
19811;BME280;10065;49.632;8.346;2022-07-05T10:11:38;100996.19;;;27.67;33.76
19811;BME280;10065;49.632;8.346;2022-07-05T10:14:10;100995.78;;;27.75;33.35
19811;BME280;10065;49.632;8.346;2022-07-05T10:16:39;100994.94;;;27.91;33.53
19811;BME280;10065;49.632;8.346;2022-07-05T10:19:09;100986.06;;;28.01;33.99
19811;BME280;10065;49.632;8.346;2022-07-05T10:21:40;100999.31;;;27.92;32.64
19811;BME280;10065;49.632;8.346;2022-07-05T10:24:33;100978.78;;;28.06;32.98
19811;BME280;10065;49.632;8.346;2022-07-05T10:27:05;100987.97;;;28.00;32.57
19811;BME280;10065;49.632;8.346;2022-07-05T10:29:36;100996.16;;;28.00;33.09
19811;BME280;10065;49.632;8.346;2022-07-05T10:32:06;100990.72;;;27.84;32.06
19811;BME280;10065;49.632;8.346;2022-07-05T10:34:36;100986.50;;;27.93;32.01
19811;BME280;10065;49.632;8.346;2022-07-05T10:37:23;100996.00;;;27.90;31.78
19811;BME280;10065;49.632;8.346;2022-07-05T10:39:54;100988.41;;;27.92;31.85
19811;BME280;10065;49.632;8.346;2022-07-05T10:42:22;100986.22;;;28.11;32.18
19811;BME280;10065;49.632;8.346;2022-07-05T10:44:52;100980.69;;;28.23;31.39
19811;BME280;10065;49.632;8.346;2022-07-05T10:47:20;100992.25;;;28.30;31.79
19811;BME280;10065;49.632;8.346;2022-07-05T10:50:00;100992.69;;;28.22;29.81
19811;BME280;10065;49.632;8.346;2022-07-05T10:52:28;100986.94;;;28.40;29.83
19811;BME280;10065;49.632;8.346;2022-07-05T10:55:18;100977.66;;;28.63;30.58
19811;BME280;10065;49.632;8.346;2022-07-05T11:06:56;100969.06;;;28.98;29.66
19811;BME280;10065;49.632;8.346;2022-07-05T11:09:25;100963.63;;;29.03;28.44
19811;BME280;10065;49.632;8.346;2022-07-05T11:12:11;100958.84;;;29.15;29.64
19811;BME280;10065;49.632;8.346;2022-07-05T11:15:04;100959.75;;;29.26;29.38
19811;BME280;10065;49.632;8.346;2022-07-05T11:17:31;100957.28;;;29.24;28.96
19811;BME280;10065;49.632;8.346;2022-07-05T11:20:31;100960.25;;;29.17;28.29
19811;BME280;10065;49.632;8.346;2022-07-05T11:23:05;100963.34;;;29.31;28.09
19811;BME280;10065;49.632;8.346;2022-07-05T11:25:35;100964.16;;;29.27;27.78
19811;BME280;10065;49.632;8.346;2022-07-05T11:28:06;100968.69;;;29.16;27.93
19811;BME280;10065;49.632;8.346;2022-07-05T11:30:53;100955.47;;;29.35;28.74
19811;BME280;10065;49.632;8.346;2022-07-05T11:33:36;100955.78;;;29.38;27.93
19811;BME280;10065;49.632;8.346;2022-07-05T11:36:18;100954.16;;;29.37;27.88
19811;BME280;10065;49.632;8.346;2022-07-05T11:39:18;100955.19;;;29.63;28.33
19811;BME280;10065;49.632;8.346;2022-07-05T11:41:48;100948.13;;;29.72;26.88
19811;BME280;10065;49.632;8.346;2022-07-05T11:44:16;100948.41;;;29.76;26.96
19811;BME280;10065;49.632;8.346;2022-07-05T11:46:44;100945.06;;;29.64;27.00
19811;BME280;10065;49.632;8.346;2022-07-05T11:49:22;100952.47;;;29.68;26.65
19811;BME280;10065;49.632;8.346;2022-07-05T11:51:56;100934.59;;;29.50;26.47
19811;BME280;10065;49.632;8.346;2022-07-05T11:54:25;100931.34;;;29.53;26.51
19811;BME280;10065;49.632;8.346;2022-07-05T11:56:54;100930.69;;;29.41;26.75
19811;BME280;10065;49.632;8.346;2022-07-05T11:59:23;100928.47;;;29.11;26.25
19811;BME280;10065;49.632;8.346;2022-07-05T12:01:51;100926.06;;;29.15;27.05
19811;BME280;10065;49.632;8.346;2022-07-05T12:04:24;100925.03;;;29.21;27.65
19811;BME280;10065;49.632;8.346;2022-07-05T12:06:52;100925.56;;;29.18;27.64
19811;BME280;10065;49.632;8.346;2022-07-05T12:09:27;100919.63;;;29.26;27.38
19811;BME280;10065;49.632;8.346;2022-07-05T12:12:17;100919.63;;;29.26;28.00
19811;BME280;10065;49.632;8.346;2022-07-05T12:15:03;100914.63;;;29.18;27.56
19811;BME280;10065;49.632;8.346;2022-07-05T12:17:33;100912.09;;;29.11;26.88
19811;BME280;10065;49.632;8.346;2022-07-05T12:20:02;100911.38;;;29.21;26.96
19811;BME280;10065;49.632;8.346;2022-07-05T12:22:30;100911.13;;;29.23;26.88
19811;BME280;10065;49.632;8.346;2022-07-05T12:25:01;100914.56;;;29.08;27.08
19811;BME280;10065;49.632;8.346;2022-07-05T12:27:30;100905.56;;;29.12;27.29
19811;BME280;10065;49.632;8.346;2022-07-05T12:29:59;100912.63;;;29.08;27.84
19811;BME280;10065;49.632;8.346;2022-07-05T12:32:29;100898.66;;;29.05;28.35
19811;BME280;10065;49.632;8.346;2022-07-05T12:34:57;100904.03;;;28.95;28.58
19811;BME280;10065;49.632;8.346;2022-07-05T12:37:31;100904.41;;;28.76;28.20
19811;BME280;10065;49.632;8.346;2022-07-05T12:40:07;100906.25;;;28.71;27.79
19811;BME280;10065;49.632;8.346;2022-07-05T12:42:38;100904.22;;;28.61;27.84
19811;BME280;10065;49.632;8.346;2022-07-05T12:45:09;100899.19;;;28.75;27.64
19811;BME280;10065;49.632;8.346;2022-07-05T12:47:48;100904.66;;;28.75;28.11
19811;BME280;10065;49.632;8.346;2022-07-05T12:50:16;100895.22;;;28.83;28.06
19811;BME280;10065;49.632;8.346;2022-07-05T12:52:59;100887.66;;;28.95;27.78
19811;BME280;10065;49.632;8.346;2022-07-05T12:55:36;100888.72;;;28.89;27.38
19811;BME280;10065;49.632;8.346;2022-07-05T12:58:21;100885.38;;;28.81;28.29
19811;BME280;10065;49.632;8.346;2022-07-05T13:00:49;100894.50;;;28.70;27.96
19811;BME280;10065;49.632;8.346;2022-07-05T13:03:17;100885.00;;;28.73;27.38
19811;BME280;10065;49.632;8.346;2022-07-05T13:06:00;100884.38;;;28.93;27.95
19811;BME280;10065;49.632;8.346;2022-07-05T13:08:29;100882.69;;;28.87;28.40
19811;BME280;10065;49.632;8.346;2022-07-05T13:10:58;100876.53;;;29.01;28.15
19811;BME280;10065;49.632;8.346;2022-07-05T13:13:26;100881.53;;;29.09;28.73
19811;BME280;10065;49.632;8.346;2022-07-05T13:15:54;100878.19;;;29.02;28.12
19811;BME280;10065;49.632;8.346;2022-07-05T13:18:24;100886.66;;;29.01;27.96